TimeEST,TemperatureF,Dew PointF,Humidity,Sea Level PressureIn,VisibilityMPH,Wind Direction,Wind SpeedMPH,Gust SpeedMPH,PrecipitationIn,Events,Conditions,WindDirDegrees,DateUTC
12:30 AM,55.4,55.4,100,30.15,0.2,SW,3.5,-,N/A,Fog,Fog,220,2012-12-03 05:30:00
12:56 AM,54.9,54.9,100,30.15,0.2,SSW,6.9,-,N/A,Fog,Fog,210,2012-12-03 05:56:00
1:56 AM,55.9,55.9,100,30.16,0.2,SSW,5.8,-,N/A,Fog,Fog,210,2012-12-03 06:56:00
2:38 AM,55.4,55.4,100,30.15,0.2,South,5.8,-,N/A,Fog,Fog,190,2012-12-03 07:38:00
2:56 AM,55.9,55.9,100,30.15,0.2,SSW,4.6,-,0.00,Fog-Rain,Light Rain,200,2012-12-03 07:56:00
3:09 AM,55.4,55.4,100,30.15,0.2,SSW,4.6,-,0.02,Fog-Rain,Light Rain,200,2012-12-03 08:09:00
3:17 AM,55.4,55.4,100,30.15,0.8,SSW,4.6,-,0.02,Rain,Light Rain,200,2012-12-03 08:17:00
3:34 AM,55.4,55.4,100,30.15,1.0,SSW,5.8,-,0.02,,Overcast,210,2012-12-03 08:34:00
3:42 AM,55.4,55.4,100,30.15,0.8,SSW,6.9,-,0.02,Rain,Light Rain,200,2012-12-03 08:42:00
3:56 AM,55.9,55.9,100,30.15,0.8,SSW,6.9,-,0.02,,Overcast,210,2012-12-03 08:56:00
4:12 AM,55.4,55.4,100,30.15,1.2,SSW,5.8,-,N/A,,Overcast,210,2012-12-03 09:12:00
4:25 AM,55.4,55.4,100,30.15,1.5,SSW,6.9,-,N/A,,Overcast,210,2012-12-03 09:25:00
4:56 AM,55.9,55.9,100,30.15,2.0,SSW,6.9,-,N/A,,Overcast,210,2012-12-03 09:56:00
5:30 AM,55.4,55.4,100,30.15,2.5,SSW,4.6,-,0.00,,Overcast,210,2012-12-03 10:30:00
5:44 AM,55.4,55.4,100,30.15,3.0,SSW,5.8,-,0.00,,Overcast,200,2012-12-03 10:44:00
5:56 AM,55.9,55.9,100,30.16,4.0,SSW,5.8,-,0.00,,Overcast,200,2012-12-03 10:56:00
6:56 AM,55.9,55.9,100,30.16,4.0,South,8.1,-,N/A,,Overcast,190,2012-12-03 11:56:00
7:56 AM,55.9,55.9,100,30.17,5.0,South,6.9,-,N/A,,Overcast,180,2012-12-03 12:56:00
8:12 AM,55.4,55.4,100,30.17,5.0,South,9.2,-,N/A,,Overcast,190,2012-12-03 13:12:00
8:56 AM,55.9,54.9,96,30.17,5.0,South,8.1,-,N/A,,Overcast,190,2012-12-03 13:56:00
9:56 AM,59.0,54.9,86,30.17,6.0,SSW,10.4,-,N/A,,Overcast,200,2012-12-03 14:56:00
10:56 AM,59.0,54.9,86,30.16,5.0,SSW,11.5,-,N/A,,Overcast,210,2012-12-03 15:56:00
11:43 AM,60.8,55.4,82,30.15,5.0,SSW,11.5,-,N/A,,Haze,210,2012-12-03 16:43:00
11:56 AM,61.0,55.9,83,30.14,5.0,SSW,11.5,-,N/A,,Haze,210,2012-12-03 16:56:00
12:12 PM,60.8,55.4,82,30.13,5.0,SSW,11.5,-,N/A,,Haze,210,2012-12-03 17:12:00
12:33 PM,60.8,55.4,82,30.13,4.0,SSW,10.4,-,0.01,Rain,Light Rain,210,2012-12-03 17:33:00
12:56 PM,61.0,55.9,83,30.12,5.0,SSW,11.5,-,0.01,,Haze,210,2012-12-03 17:56:00
1:15 PM,60.8,55.4,82,30.12,5.0,SW,12.7,-,N/A,,Haze,220,2012-12-03 18:15:00
1:56 PM,63.0,55.9,78,30.09,6.0,SSW,11.5,-,N/A,,Haze,200,2012-12-03 18:56:00
2:56 PM,64.9,56.8,75,30.08,6.0,SSW,6.9,-,N/A,,Haze,210,2012-12-03 19:56:00
3:09 PM,64.4,55.4,73,30.09,6.0,SSW,10.4,-,N/A,,Haze,200,2012-12-03 20:09:00
3:56 PM,64.9,55.9,73,30.08,6.0,South,6.9,-,N/A,,Haze,190,2012-12-03 20:56:00
4:56 PM,63.0,54.9,75,30.09,6.0,South,8.1,-,N/A,,Haze,190,2012-12-03 21:56:00
5:56 PM,61.9,54.0,75,30.10,8.0,South,6.9,-,N/A,,Clear,170,2012-12-03 22:56:00
6:56 PM,59.9,52.9,78,30.11,8.0,South,6.9,-,N/A,,Clear,170,2012-12-03 23:56:00
7:56 PM,57.9,52.9,83,30.10,7.0,South,9.2,-,N/A,,Clear,170,2012-12-04 00:56:00
8:56 PM,57.9,52.0,81,30.09,7.0,South,8.1,-,N/A,,Clear,170,2012-12-04 01:56:00
9:56 PM,57.9,50.9,77,30.09,8.0,South,10.4,-,N/A,,Clear,190,2012-12-04 02:56:00
10:56 PM,57.9,50.0,75,30.09,8.0,South,9.2,-,N/A,,Clear,190,2012-12-04 03:56:00
11:56 PM,56.8,48.9,75,30.10,8.0,South,6.9,-,N/A,,Clear,170,2012-12-04 04:56:00